createdAt,value
2018-03-24T00:01:35.960Z,13.40
2018-03-24T00:04:05.878Z,15.07
2018-03-24T00:06:35.689Z,15.87
2018-03-24T00:09:05.612Z,14.00
2018-03-24T00:11:35.374Z,15.40
2018-03-24T00:14:05.227Z,13.60
2018-03-24T00:16:35.054Z,14.23
2018-03-24T00:19:05.478Z,17.03
2018-03-24T00:21:35.287Z,14.63
2018-03-24T00:24:05.099Z,16.37
2018-03-24T00:26:34.904Z,17.17
2018-03-24T00:29:04.717Z,16.20
2018-03-24T00:31:34.533Z,16.70
2018-03-24T00:34:04.346Z,18.00
2018-03-24T00:36:34.155Z,16.60
2018-03-24T00:39:04.786Z,19.20
2018-03-24T00:41:34.609Z,19.07
2018-03-24T00:44:04.413Z,18.97
2018-03-24T00:46:34.224Z,20.73
2018-03-24T00:49:04.037Z,17.80
2018-03-24T00:51:33.852Z,16.53
2018-03-24T00:54:03.670Z,17.70
2018-03-24T00:56:33.587Z,19.77
2018-03-24T00:59:03.462Z,19.17
2018-03-24T01:01:33.303Z,17.87
2018-03-24T01:04:03.219Z,20.77
2018-03-24T01:06:33.143Z,24.23
2018-03-24T01:09:03.063Z,20.60
2018-03-24T01:11:32.863Z,20.77
2018-03-24T01:14:02.685Z,23.13
2018-03-24T01:16:33.078Z,23.83
2018-03-24T01:19:02.922Z,22.93
2018-03-24T01:21:32.832Z,27.93
2018-03-24T01:24:02.755Z,25.77
2018-03-24T01:26:32.775Z,24.93
2018-03-24T01:29:02.589Z,26.67
2018-03-24T01:31:32.861Z,23.90
2018-03-24T01:34:02.714Z,23.23
2018-03-24T01:36:32.532Z,25.67
2018-03-24T01:39:02.345Z,26.20
2018-03-24T01:41:32.257Z,23.13
2018-03-24T01:44:02.068Z,23.97
2018-03-24T01:46:31.882Z,23.83
2018-03-24T01:49:01.689Z,28.07
2018-03-24T01:51:31.506Z,27.97
2018-03-24T01:54:01.312Z,26.23
2018-03-24T01:56:31.127Z,26.60
2018-03-24T01:59:01.050Z,24.10
2018-03-24T02:01:30.861Z,24.33
2018-03-24T02:04:00.670Z,22.00
2018-03-24T02:06:30.482Z,23.00
2018-03-24T02:09:00.292Z,21.87
2018-03-24T02:11:30.111Z,20.97
2018-03-24T02:13:59.925Z,21.53
2018-03-24T02:16:29.732Z,21.87
2018-03-24T02:18:59.545Z,21.23
2018-03-24T02:21:29.360Z,21.40
2018-03-24T02:23:59.272Z,20.60
2018-03-24T02:26:29.107Z,20.57
2018-03-24T02:28:59.006Z,21.77
2018-03-24T02:31:28.823Z,20.07
2018-03-24T02:33:58.737Z,19.97
2018-03-24T02:36:28.547Z,19.13
2018-03-24T02:38:58.465Z,18.60
2018-03-24T02:41:28.380Z,20.40
2018-03-24T02:43:58.160Z,17.83
2018-03-24T02:46:28.005Z,19.67
2018-03-24T02:48:57.790Z,19.97
2018-03-24T02:51:28.135Z,17.23
2018-03-24T02:53:58.056Z,19.10
2018-03-24T02:56:27.856Z,20.67
2018-03-24T02:58:57.676Z,18.43
2018-03-24T03:01:27.484Z,19.57
2018-03-24T03:03:57.302Z,17.13
2018-03-24T03:06:27.229Z,19.40
2018-03-24T03:08:57.026Z,19.37
2018-03-24T03:11:26.833Z,20.60
2018-03-24T03:13:56.551Z,17.13
2018-03-24T03:16:26.366Z,17.57
2018-03-24T03:18:56.378Z,19.53
2018-03-24T03:21:44.935Z,18.47
2018-03-24T03:24:14.844Z,16.37
2018-03-24T03:26:44.678Z,15.43
2018-03-24T03:29:14.575Z,14.60
2018-03-24T03:31:58.210Z,14.53
2018-03-24T03:34:28.027Z,14.43
2018-03-24T03:36:58.493Z,15.67
2018-03-24T03:39:28.264Z,16.00
2018-03-24T03:41:58.073Z,16.27
2018-03-24T03:44:27.897Z,14.90
2018-03-24T03:46:57.805Z,14.63
2018-03-24T03:49:27.612Z,12.80
2018-03-24T03:51:57.398Z,13.10
2018-03-24T03:54:27.245Z,14.57
2018-03-24T03:56:57.059Z,14.03
2018-03-24T03:59:26.870Z,13.20
2018-03-24T04:01:56.677Z,13.77
2018-03-24T04:04:26.486Z,14.50
2018-03-24T04:06:56.305Z,14.47
2018-03-24T04:09:26.111Z,14.07
2018-03-24T04:11:55.924Z,15.47
2018-03-24T04:14:25.745Z,13.03
2018-03-24T04:16:55.557Z,14.20
2018-03-24T04:19:25.438Z,12.77
2018-03-24T04:21:55.175Z,12.90
2018-03-24T04:24:24.997Z,12.03
2018-03-24T04:26:54.918Z,10.73
2018-03-24T04:29:24.774Z,11.53
2018-03-24T04:31:55.144Z,11.57
2018-03-24T04:34:25.061Z,12.47
2018-03-24T04:36:54.868Z,11.10
2018-03-24T04:39:24.681Z,10.97
2018-03-24T04:41:54.606Z,11.20
2018-03-24T04:44:24.412Z,12.27
2018-03-24T04:46:54.224Z,11.70
2018-03-24T04:49:24.058Z,12.00
2018-03-24T04:51:53.954Z,11.53
2018-03-24T04:54:23.718Z,11.60
2018-03-24T04:56:53.533Z,13.50
2018-03-24T04:59:23.391Z,11.40
2018-03-24T05:01:53.203Z,12.73
2018-03-24T05:04:23.010Z,14.03
2018-03-24T05:06:52.733Z,14.73
2018-03-24T05:09:22.731Z,13.87
2018-03-24T05:11:52.551Z,14.63
2018-03-24T05:14:22.362Z,16.63
2018-03-24T05:16:52.179Z,16.80
2018-03-24T05:19:21.992Z,15.43
2018-03-24T05:21:51.810Z,17.57
2018-03-24T05:24:21.599Z,13.90
2018-03-24T05:26:51.425Z,13.83
2018-03-24T05:29:21.247Z,13.20
2018-03-24T05:31:51.059Z,13.70
2018-03-24T05:34:20.967Z,18.27
2018-03-24T05:36:50.778Z,19.90
2018-03-24T05:39:20.607Z,13.13
2018-03-24T05:41:50.409Z,14.27
2018-03-24T05:44:20.216Z,13.77
2018-03-24T05:46:49.987Z,14.10
2018-03-24T05:49:19.853Z,12.87
2018-03-24T05:51:49.659Z,13.23
2018-03-24T05:54:19.468Z,14.03
2018-03-24T05:56:49.281Z,14.30
2018-03-24T05:59:19.099Z,15.77
2018-03-24T06:01:48.795Z,15.47
2018-03-24T06:04:18.621Z,14.07
2018-03-24T06:06:48.438Z,15.17
2018-03-24T06:09:18.346Z,15.37
2018-03-24T06:11:48.172Z,14.60
2018-03-24T06:14:18.077Z,14.83
2018-03-24T06:16:47.920Z,14.27
2018-03-24T06:19:17.804Z,15.60
2018-03-24T06:21:47.615Z,13.70
2018-03-24T06:24:17.424Z,13.67
2018-03-24T06:26:47.239Z,13.63
2018-03-24T06:29:17.048Z,14.13
2018-03-24T06:31:48.811Z,15.93
2018-03-24T06:34:18.632Z,12.97
2018-03-24T06:36:59.290Z,13.83
2018-03-24T06:39:29.097Z,13.07
2018-03-24T06:41:58.916Z,13.70
2018-03-24T06:44:28.826Z,13.07
2018-03-24T06:46:58.649Z,12.17
2018-03-24T06:49:28.565Z,12.23
2018-03-24T06:51:58.373Z,12.30
2018-03-24T06:54:28.286Z,14.00
2018-03-24T06:56:58.103Z,12.77
2018-03-24T06:59:27.968Z,12.53
2018-03-24T07:01:57.822Z,12.47
2018-03-24T07:04:27.591Z,19.10
2018-03-24T07:06:57.444Z,21.03
2018-03-24T07:09:27.269Z,14.67
2018-03-24T07:11:57.180Z,14.23
2018-03-24T07:14:26.986Z,12.83
2018-03-24T07:16:56.796Z,14.03
2018-03-24T07:19:26.612Z,13.23
2018-03-24T07:21:56.988Z,14.20
2018-03-24T07:24:26.857Z,14.57
2018-03-24T07:26:56.557Z,20.53
2018-03-24T07:29:26.376Z,12.90
2018-03-24T07:31:56.188Z,13.67
2018-03-24T07:34:26.008Z,12.97
2018-03-24T07:36:55.818Z,12.47
2018-03-24T07:39:26.241Z,10.90
2018-03-24T07:41:56.055Z,12.30
2018-03-24T07:44:25.865Z,12.27
2018-03-24T07:46:55.679Z,11.77
2018-03-24T07:49:25.494Z,11.33
2018-03-24T07:51:55.308Z,11.67
2018-03-24T07:54:25.256Z,11.47
2018-03-24T07:56:55.027Z,9.97
2018-03-24T07:59:24.794Z,10.47
2018-03-24T08:01:54.610Z,10.77
2018-03-24T08:04:24.484Z,9.87
2018-03-24T08:06:54.384Z,8.80
2018-03-24T08:09:24.503Z,10.10
2018-03-24T08:11:54.393Z,12.83
2018-03-24T08:14:24.124Z,13.37
2018-03-24T08:16:53.902Z,9.13
2018-03-24T08:19:23.623Z,9.23
2018-03-24T08:21:53.375Z,11.80
2018-03-24T08:24:23.144Z,10.30
2018-03-24T08:26:53.073Z,10.80
2018-03-24T08:29:22.841Z,9.10
2018-03-24T08:31:52.551Z,9.83
2018-03-24T08:34:22.240Z,10.37
2018-03-24T08:36:51.993Z,10.53
2018-03-24T08:39:21.716Z,11.57
2018-03-24T08:41:51.403Z,9.67
2018-03-24T08:44:21.159Z,11.83
2018-03-24T08:46:50.891Z,9.83
2018-03-24T08:49:20.615Z,10.27
2018-03-24T08:51:50.357Z,9.97
2018-03-24T08:54:20.201Z,9.73
2018-03-24T08:56:50.016Z,8.83
2018-03-24T08:59:19.841Z,9.07
2018-03-24T09:01:49.571Z,10.63
2018-03-24T09:04:19.334Z,9.80
2018-03-24T09:06:49.043Z,9.17
2018-03-24T09:09:18.768Z,11.30
2018-03-24T09:11:48.481Z,9.67
2018-03-24T09:14:18.189Z,10.73
2018-03-24T09:16:47.945Z,9.80
2018-03-24T09:19:17.650Z,9.60
2018-03-24T09:21:48.210Z,9.53
2018-03-24T09:24:18.217Z,9.50
2018-03-24T09:26:48.387Z,11.83
2018-03-24T09:29:19.510Z,10.00
2018-03-24T09:31:52.040Z,10.33
2018-03-24T09:34:21.731Z,10.00
2018-03-24T09:36:51.442Z,9.87
2018-03-24T09:39:21.774Z,10.43
2018-03-24T09:41:52.082Z,8.57
2018-03-24T09:44:21.809Z,9.17
2018-03-24T09:46:51.579Z,9.53
2018-03-24T09:49:21.359Z,11.37
2018-03-24T09:51:51.154Z,8.60
2018-03-24T09:54:20.896Z,9.90
2018-03-24T09:56:50.652Z,11.83
2018-03-24T09:59:20.497Z,10.03
2018-03-24T10:01:50.204Z,8.63
2018-03-24T10:04:19.958Z,17.67
2018-03-24T10:06:49.725Z,8.20
2018-03-24T10:09:19.474Z,6.70
2018-03-24T10:11:50.062Z,7.50
2018-03-24T10:14:19.810Z,7.20
2018-03-24T10:16:49.579Z,6.90
2018-03-24T10:19:19.356Z,6.63
2018-03-24T10:25:05.255Z,7.70
2018-03-24T10:27:35.010Z,6.83
2018-03-24T10:30:04.742Z,5.80
2018-03-24T10:32:34.517Z,7.10
2018-03-24T10:35:06.142Z,8.17
2018-03-24T10:37:41.618Z,6.23
2018-03-24T10:40:11.412Z,6.97
2018-03-24T10:42:56.045Z,6.50
2018-03-24T10:45:25.792Z,6.63
2018-03-24T10:47:55.540Z,8.07
2018-03-24T10:50:25.262Z,6.30
2018-03-24T10:52:55.013Z,10.50
2018-03-24T10:55:24.810Z,5.87
2018-03-24T10:57:54.980Z,5.37
2018-03-24T11:00:30.295Z,5.63
2018-03-24T11:02:59.977Z,5.07
2018-03-24T11:05:29.726Z,4.67
2018-03-24T11:07:59.489Z,5.40
2018-03-24T11:10:29.156Z,5.37
2018-03-24T11:12:58.909Z,5.20
2018-03-24T11:15:28.664Z,5.40
2018-03-24T11:17:58.430Z,5.37
2018-03-24T11:20:28.291Z,4.83
2018-03-24T11:22:58.096Z,5.10
2018-03-24T11:25:27.789Z,4.43
2018-03-24T11:27:57.535Z,5.37
2018-03-24T11:30:27.339Z,7.23
2018-03-24T11:32:57.144Z,5.13
2018-03-24T11:35:27.061Z,4.70
2018-03-24T11:37:56.873Z,4.83
2018-03-24T11:40:26.784Z,4.50
2018-03-24T11:42:56.600Z,4.70
2018-03-24T11:45:26.415Z,5.00
2018-03-24T11:47:56.226Z,4.90
2018-03-24T11:50:26.028Z,6.50
2018-03-24T11:52:55.850Z,5.47
2018-03-24T11:55:25.611Z,8.17
2018-03-24T11:57:55.374Z,8.53
2018-03-24T12:00:25.183Z,6.07
2018-03-24T12:02:54.987Z,6.10
2018-03-24T12:05:24.802Z,6.13
2018-03-24T12:07:55.187Z,5.60
2018-03-24T12:10:25.055Z,5.47
2018-03-24T12:12:54.852Z,6.10
2018-03-24T12:15:24.671Z,7.53
2018-03-24T12:17:54.588Z,7.00
2018-03-24T12:20:24.396Z,6.57
2018-03-24T12:22:54.313Z,7.27
2018-03-24T12:25:24.122Z,7.27
2018-03-24T12:27:53.934Z,6.30
2018-03-24T12:30:23.752Z,6.07
2018-03-24T12:32:53.560Z,5.23
2018-03-24T12:35:23.372Z,5.30
2018-03-24T12:37:53.186Z,5.23
2018-03-24T12:40:23.099Z,5.30
2018-03-24T12:42:52.922Z,5.60
2018-03-24T12:45:23.441Z,5.07
2018-03-24T12:47:53.198Z,5.70
2018-03-24T12:50:22.934Z,6.07
2018-03-24T12:52:52.780Z,6.20
2018-03-24T12:55:22.597Z,5.63
2018-03-24T12:57:52.404Z,5.83
2018-03-24T13:00:22.221Z,5.60
2018-03-24T13:02:51.946Z,7.47
2018-03-24T13:05:21.744Z,6.27
2018-03-24T13:07:51.650Z,6.57
2018-03-24T13:10:21.468Z,7.07
2018-03-24T13:12:51.282Z,6.40
2018-03-24T13:15:21.090Z,6.20
2018-03-24T13:17:51.115Z,5.90
2018-03-24T13:20:20.875Z,6.83
2018-03-24T13:22:50.735Z,5.97
2018-03-24T13:25:20.548Z,5.63
2018-03-24T13:27:50.354Z,5.97
2018-03-24T13:30:20.274Z,6.67
2018-03-24T13:32:50.089Z,6.77
2018-03-24T13:35:20.002Z,7.47
2018-03-24T13:37:49.820Z,6.37
2018-03-24T13:40:19.639Z,7.10
2018-03-24T13:42:49.458Z,6.90
2018-03-24T13:45:19.250Z,7.77
2018-03-24T13:47:49.164Z,6.77
2018-03-24T13:50:18.984Z,8.30
2018-03-24T13:52:48.889Z,7.10
2018-03-24T13:55:18.811Z,7.33
2018-03-24T13:57:48.617Z,8.10
2018-03-24T14:00:18.536Z,6.40
2018-03-24T14:02:48.352Z,7.07
2018-03-24T14:05:19.088Z,7.10
2018-03-24T14:07:48.890Z,7.23
2018-03-24T14:10:18.810Z,7.13
2018-03-24T14:12:48.582Z,7.07
2018-03-24T14:15:18.441Z,7.80
2018-03-24T14:17:48.249Z,6.77
2018-03-24T14:20:18.056Z,7.00
2018-03-24T14:22:47.981Z,6.33
2018-03-24T14:25:17.778Z,6.63
2018-03-24T14:27:48.224Z,6.80
2018-03-24T14:30:18.542Z,6.77
2018-03-24T14:32:48.441Z,6.20
2018-03-24T14:35:18.268Z,7.90
2018-03-24T14:37:48.098Z,6.83
2018-03-24T14:40:17.893Z,7.57
2018-03-24T14:42:47.709Z,7.20
2018-03-24T14:45:17.520Z,7.03
2018-03-24T14:47:47.327Z,7.00
2018-03-24T14:50:17.248Z,6.83
2018-03-24T14:52:47.051Z,7.63
2018-03-24T14:55:16.863Z,7.43
2018-03-24T14:57:46.684Z,9.10
2018-03-24T15:00:16.500Z,6.97
2018-03-24T15:02:46.405Z,6.57
2018-03-24T15:05:16.223Z,6.50
2018-03-24T15:07:46.143Z,9.00
2018-03-24T15:10:15.955Z,8.43
2018-03-24T15:12:45.870Z,8.07
2018-03-24T15:15:15.788Z,6.07
2018-03-24T15:17:45.596Z,6.43
2018-03-24T15:20:15.411Z,6.03
2018-03-24T15:22:45.223Z,6.30
2018-03-24T15:25:15.029Z,6.57
2018-03-24T15:27:44.944Z,6.60
2018-03-24T15:30:26.640Z,6.63
2018-03-24T15:33:08.118Z,7.00
2018-03-24T15:35:38.034Z,6.40
2018-03-24T15:38:07.843Z,7.90
2018-03-24T15:40:37.612Z,8.17
2018-03-24T15:43:07.368Z,7.70
2018-03-24T15:45:37.220Z,10.53
2018-03-24T15:48:06.942Z,8.43
2018-03-24T15:50:37.278Z,9.10
2018-03-24T15:53:07.136Z,8.00
2018-03-24T15:55:36.954Z,7.63
2018-03-24T15:58:06.861Z,8.63
2018-03-24T16:00:36.901Z,8.20
2018-03-24T16:03:06.694Z,8.37
2018-03-24T16:05:36.626Z,7.97
2018-03-24T16:08:06.419Z,9.23
2018-03-24T16:10:36.334Z,8.03
2018-03-24T16:13:06.145Z,8.10
2018-03-24T16:15:35.956Z,10.63
2018-03-24T16:18:05.839Z,9.57
2018-03-24T16:20:35.680Z,8.80
2018-03-24T16:23:05.604Z,9.53
2018-03-24T16:25:35.411Z,10.90
2018-03-24T16:28:05.332Z,10.70
2018-03-24T16:30:35.149Z,13.27
2018-03-24T16:33:04.958Z,11.13
2018-03-24T16:35:34.862Z,13.23
2018-03-24T16:38:04.684Z,12.87
2018-03-24T16:40:34.496Z,13.50
2018-03-24T16:43:04.337Z,13.37
2018-03-24T16:45:34.223Z,10.70
2018-03-24T16:48:04.035Z,12.17
2018-03-24T16:50:33.850Z,10.67
2018-03-24T16:53:03.672Z,8.70
2018-03-24T16:55:33.473Z,9.50
2018-03-24T16:58:03.254Z,10.13
2018-03-24T17:00:34.102Z,11.33
2018-03-24T17:03:04.038Z,9.70
2018-03-24T17:05:33.846Z,11.47
2018-03-24T17:08:03.769Z,10.13
2018-03-24T17:10:33.577Z,10.00
2018-03-24T17:13:03.388Z,10.53
2018-03-24T17:15:33.268Z,10.77
2018-03-24T17:18:03.118Z,16.80
2018-03-24T17:20:33.028Z,14.70
2018-03-24T17:23:02.842Z,15.37
2018-03-24T17:25:32.651Z,15.40
2018-03-24T17:28:02.426Z,15.40
2018-03-24T17:30:32.288Z,15.60
2018-03-24T17:33:02.092Z,15.37
2018-03-24T17:35:31.914Z,17.13
2018-03-24T17:38:01.817Z,15.87
2018-03-24T17:40:31.636Z,16.73
2018-03-24T17:43:01.448Z,18.73
2018-03-24T17:45:31.459Z,17.47
2018-03-24T17:48:01.288Z,21.80
2018-03-24T17:50:31.293Z,23.83
2018-03-24T17:53:00.985Z,27.37
2018-03-24T17:55:30.921Z,31.57
2018-03-24T17:58:00.835Z,33.73
2018-03-24T18:00:30.650Z,34.33
2018-03-24T18:03:00.465Z,31.10
2018-03-24T18:05:30.268Z,37.87
2018-03-24T18:08:00.199Z,31.27
2018-03-24T18:10:30.000Z,29.47
2018-03-24T18:12:59.816Z,23.77
2018-03-24T18:15:29.623Z,25.00
2018-03-24T18:17:59.442Z,24.90
2018-03-24T18:20:29.709Z,21.30
2018-03-24T18:22:59.576Z,21.13
2018-03-24T18:25:29.392Z,22.37
2018-03-24T18:27:59.202Z,22.17
2018-03-24T18:30:29.010Z,19.07
2018-03-24T18:32:58.820Z,19.90
2018-03-24T18:35:28.742Z,20.33
2018-03-24T18:37:58.558Z,22.90
2018-03-24T18:40:28.376Z,22.10
2018-03-24T18:42:58.179Z,24.70
2018-03-24T18:45:27.994Z,23.07
2018-03-24T18:47:57.770Z,24.73
2018-03-24T18:50:27.615Z,22.47
2018-03-24T18:52:57.434Z,22.73
2018-03-24T18:55:27.243Z,19.43
2018-03-24T18:57:57.061Z,19.77
2018-03-24T19:00:26.982Z,21.90
2018-03-24T19:02:56.795Z,18.83
2018-03-24T19:05:26.590Z,18.87
2018-03-24T19:07:56.404Z,22.60
2018-03-24T19:10:26.233Z,23.37
2018-03-24T19:12:56.097Z,21.60
2018-03-24T19:15:26.055Z,19.67
2018-03-24T19:17:55.961Z,19.63
2018-03-24T19:20:25.778Z,18.73
2018-03-24T19:22:55.695Z,22.37
2018-03-24T19:25:25.425Z,23.23
2018-03-24T19:27:55.316Z,20.60
2018-03-24T19:30:25.243Z,23.47
2018-03-24T19:32:55.046Z,21.47
2018-03-24T19:35:24.862Z,21.27
2018-03-24T19:37:54.673Z,23.33
2018-03-24T19:40:24.485Z,19.77
2018-03-24T19:42:54.303Z,22.10
2018-03-24T19:45:24.126Z,20.67
2018-03-24T19:47:54.030Z,20.77
2018-03-24T19:50:23.794Z,17.47
2018-03-24T19:52:53.650Z,19.77
2018-03-24T19:55:23.464Z,20.20
2018-03-24T19:57:53.372Z,20.90
2018-03-24T20:00:23.192Z,22.30
2018-03-24T20:02:53.004Z,21.47
2018-03-24T20:05:22.917Z,22.17
2018-03-24T20:07:52.741Z,24.20
2018-03-24T20:10:22.640Z,25.23
2018-03-24T20:12:52.452Z,22.87
2018-03-24T20:15:22.265Z,21.83
2018-03-24T20:17:52.088Z,25.07
2018-03-24T20:20:21.793Z,20.03
2018-03-24T20:22:51.714Z,20.80
2018-03-24T20:25:21.627Z,21.17
2018-03-24T20:27:51.640Z,21.97
2018-03-24T20:30:21.453Z,20.47
2018-03-24T20:32:51.362Z,23.40
2018-03-24T20:35:21.178Z,23.10
2018-03-24T20:37:50.994Z,22.10
2018-03-24T20:40:20.808Z,26.17
2018-03-24T20:42:50.626Z,24.07
2018-03-24T20:45:20.533Z,26.83
2018-03-24T20:47:50.347Z,24.60
2018-03-24T20:50:20.263Z,23.50
2018-03-24T20:52:50.082Z,25.13
2018-03-24T20:55:19.900Z,23.37
2018-03-24T20:57:49.709Z,23.50
2018-03-24T21:00:19.512Z,27.83
2018-03-24T21:02:49.422Z,23.80
2018-03-24T21:05:19.233Z,26.33
2018-03-24T21:07:49.062Z,26.10
2018-03-24T21:10:18.871Z,22.80
2018-03-24T21:12:48.669Z,25.90
2018-03-24T21:15:18.450Z,23.00
2018-03-24T21:17:48.310Z,21.60
2018-03-24T21:20:18.218Z,25.37
2018-03-24T21:22:48.030Z,27.97
2018-03-24T21:25:17.840Z,25.33
2018-03-24T21:27:47.756Z,26.50
2018-03-24T21:30:17.675Z,25.63
2018-03-24T21:32:47.481Z,26.70
2018-03-24T21:35:17.290Z,27.57
2018-03-24T21:37:47.101Z,26.63
2018-03-24T21:40:16.918Z,25.33
2018-03-24T21:42:46.733Z,25.67
2018-03-24T21:45:16.542Z,23.80
2018-03-24T21:47:46.461Z,25.83
2018-03-24T21:50:16.369Z,25.17
2018-03-24T21:52:46.291Z,25.77
2018-03-24T21:55:16.106Z,27.13
2018-03-24T21:57:46.012Z,26.57
2018-03-24T22:00:15.936Z,27.53
2018-03-24T22:02:45.747Z,28.97
2018-03-24T22:05:15.521Z,29.97
2018-03-24T22:07:45.620Z,29.87
2018-03-24T22:10:15.462Z,28.83
2018-03-24T22:12:45.299Z,26.80
2018-03-24T22:15:15.122Z,26.07
2018-03-24T22:17:45.015Z,30.77
2018-03-24T22:20:14.843Z,28.97
2018-03-24T22:22:44.659Z,27.47
2018-03-24T22:25:14.571Z,29.87
2018-03-24T22:27:44.375Z,30.77
2018-03-24T22:30:14.290Z,29.50
2018-03-24T22:32:44.114Z,25.53
2018-03-24T22:35:14.021Z,27.63
2018-03-24T22:37:43.836Z,28.40
2018-03-24T22:40:13.751Z,28.00
2018-03-24T22:42:43.564Z,30.03
2018-03-24T22:45:13.276Z,27.13
2018-03-24T22:47:42.990Z,28.83
2018-03-24T22:50:12.796Z,29.17
2018-03-24T22:52:42.816Z,28.23
2018-03-24T22:55:12.631Z,28.17
2018-03-24T22:57:42.434Z,36.37
2018-03-24T23:00:12.361Z,30.03
2018-03-24T23:02:42.435Z,29.67
2018-03-24T23:05:12.475Z,30.53
2018-03-24T23:07:42.314Z,35.10
2018-03-24T23:10:12.212Z,30.77
2018-03-24T23:12:42.033Z,33.80
2018-03-24T23:15:11.950Z,30.07
2018-03-24T23:17:41.964Z,33.90
2018-03-24T23:20:11.976Z,32.57
2018-03-24T23:22:41.859Z,33.07
2018-03-24T23:25:12.424Z,32.20
2018-03-24T23:27:42.243Z,31.17
2018-03-24T23:30:12.029Z,29.37
2018-03-24T23:32:41.861Z,30.70
2018-03-24T23:35:11.669Z,31.90
2018-03-24T23:37:41.585Z,30.43
2018-03-24T23:40:12.906Z,30.27
2018-03-24T23:42:42.761Z,31.90
2018-03-24T23:45:13.991Z,33.87
2018-03-24T23:47:43.810Z,31.43
2018-03-24T23:50:13.721Z,30.93
2018-03-24T23:52:43.533Z,30.00
2018-03-24T23:55:13.452Z,44.40
2018-03-24T23:57:43.261Z,30.13
